Terminal Aerodrome Forecast
Issued by NWS

Home | Current Version | Previous Version | Text Only | Print | Product List | Glossary Off
Versions: 1 2 3 4 5 6 7 8 9 10 11 12 13 14 15

000
FTUS43 KBIS 191100
TAFDIK
TAF
KDIK 191138Z 1912/2012 25007KT P6SM SCT060 BKN090
     FM200000 21005KT P6SM SCT100
     FM201000 18006KT P6SM SCT070 BKN250=

USA.gov is the U.S. government's official web portal to all federal, state and local government web resources and services.